Time;durP1;ratioP1;P1;durP2;ratioP2;P2;SDS_P1;SDS_P2;PMS_P1;PMS_P2;Temp;Humidity;BMP_temperature;BMP_pressure;BME280_temperature;BME280_humidity;BME280_pressure;Samples;Min_cycle;Max_cycle;Signal;HPM_P1;HPM_P2
2022/01/06 00:01:16;;;;;;;2.13;1.63;;;5.60;39.10;;;;;;10418744;28;20228;-72
2022/01/06 00:06:22;;;;;;;4.50;1.90;;;5.60;39.10;;;;;;10416572;28;20647;-72
2022/01/06 00:11:25;;;;;;;4.83;1.80;;;5.60;39.20;;;;;;10413595;28;20607;-71
2022/01/06 00:16:38;;;;;;;3.10;1.80;;;5.50;39.30;;;;;;10419098;28;20709;-71
2022/01/06 00:27:02;;;;;;;3.80;1.70;;;5.50;39.50;;;;;;10414965;28;20225;-72
2022/01/06 00:32:08;;;;;;;2.37;1.70;;;5.50;39.60;;;;;;10423002;28;20233;-71
2022/01/06 00:42:20;;;;;;;3.00;1.90;;;5.50;39.50;;;;;;10431218;28;20693;-74
2022/01/06 00:47:25;;;;;;;3.77;2.13;;;5.50;39.60;;;;;;10447230;28;20263;-75
2022/01/06 00:52:28;;;;;;;3.63;2.37;;;5.50;39.60;;;;;;10446829;28;20225;-74
2022/01/06 00:57:31;;;;;;;3.70;1.97;;;5.50;39.70;;;;;;10446503;28;20236;-75
2022/01/06 01:02:36;;;;;;;3.13;2.00;;;5.50;39.80;;;;;;10446823;28;20221;-75
2022/01/06 01:07:39;;;;;;;3.40;1.90;;;5.50;39.70;;;;;;10452680;28;20697;-74
2022/01/06 01:12:46;;;;;;;5.30;2.10;;;5.50;39.80;;;;;;10454280;28;20232;-75
2022/01/06 01:17:54;;;;;;;4.03;2.10;;;5.50;39.70;;;;;;10454302;28;20244;-75
2022/01/06 01:22:57;;;;;;;5.37;2.40;;;5.50;39.80;;;;;;10454440;28;20232;-75
2022/01/06 01:28:00;;;;;;;3.70;2.17;;;5.50;39.80;;;;;;10453902;28;20241;-74
2022/01/06 01:33:13;;;;;;;5.37;2.00;;;5.50;39.80;;;;;;10453491;28;20225;-75
2022/01/06 01:38:16;;;;;;;3.93;1.93;;;5.50;39.90;;;;;;10453258;28;20827;-75
2022/01/06 01:43:20;;;;;;;3.80;1.80;;;5.50;40.00;;;;;;10453141;28;20237;-75
2022/01/06 01:48:31;;;;;;;3.40;1.83;;;5.50;40.10;;;;;;10453050;28;20237;-75
2022/01/06 01:53:34;;;;;;;4.30;2.20;;;5.50;40.10;;;;;;10453246;28;20224;-75
2022/01/06 01:58:39;;;;;;;6.50;2.10;;;5.50;40.10;;;;;;10450557;28;20236;-75
2022/01/06 02:03:44;;;;;;;3.97;2.00;;;5.50;40.10;;;;;;10429829;28;20311;-75
2022/01/06 02:08:47;;;;;;;3.33;1.80;;;5.50;40.30;;;;;;10431959;28;20721;-75
2022/01/06 02:13:53;;;;;;;4.00;1.83;;;5.50;40.90;;;;;;10419992;28;20221;-75
2022/01/06 02:18:58;;;;;;;3.37;1.80;;;5.40;40.30;;;;;;10422135;28;20236;-75
2022/01/06 02:24:02;;;;;;;4.93;2.20;;;5.40;40.30;;;;;;10430306;28;20224;-75
2022/01/06 02:29:06;;;;;;;4.00;2.10;;;5.50;40.30;;;;;;10434111;28;20232;-75
2022/01/06 02:34:09;;;;;;;3.00;1.87;;;5.50;40.40;;;;;;10424991;28;20317;-75
2022/01/06 02:39:14;;;;;;;4.13;2.03;;;5.50;40.30;;;;;;10431561;28;20236;-75
2022/01/06 02:44:21;;;;;;;4.60;2.00;;;5.50;40.50;;;;;;10435227;28;20228;-75
2022/01/06 02:49:24;;;;;;;3.37;1.87;;;5.50;40.50;;;;;;10436959;28;20630;-75
2022/01/06 02:54:29;;;;;;;5.67;2.17;;;5.50;40.40;;;;;;10426129;28;20236;-75
2022/01/06 02:59:32;;;;;;;5.07;2.03;;;5.50;40.60;;;;;;10434139;28;20232;-74
2022/01/06 03:04:36;;;;;;;3.47;2.00;;;5.60;40.70;;;;;;10427846;28;20741;-75
2022/01/06 03:09:42;;;;;;;3.87;2.10;;;5.60;40.60;;;;;;10435128;28;20229;-75
2022/01/06 03:14:46;;;;;;;4.00;2.20;;;5.60;40.60;;;;;;10426836;28;20233;-74
2022/01/06 03:19:49;;;;;;;5.23;2.13;;;5.60;40.60;;;;;;10433770;28;20220;-75
2022/01/06 03:24:53;;;;;;;2.60;1.83;;;5.60;40.50;;;;;;10432041;28;20217;-77
2022/01/06 03:29:56;;;;;;;4.80;2.00;;;5.60;40.60;;;;;;10430502;28;20241;-77
2022/01/06 03:35:00;;;;;;;5.80;2.40;;;5.50;40.50;;;;;;10423964;28;20233;-76
2022/01/06 03:40:05;;;;;;;5.30;2.20;;;5.50;40.80;;;;;;10419743;28;20221;-76
2022/01/06 03:45:11;;;;;;;4.60;2.10;;;5.50;40.90;;;;;;10419533;28;20251;-77
2022/01/06 03:50:16;;;;;;;4.33;2.10;;;5.50;40.80;;;;;;10431312;28;20229;-77
2022/01/06 03:55:21;;;;;;;4.03;2.37;;;5.50;40.90;;;;;;10426945;28;20217;-77
2022/01/06 04:00:24;;;;;;;5.30;2.00;;;5.50;41.00;;;;;;10422379;28;20240;-76
2022/01/06 04:05:31;;;;;;;4.07;2.30;;;5.60;40.80;;;;;;10422565;28;20220;-76
2022/01/06 04:10:36;;;;;;;3.80;1.83;;;5.60;40.90;;;;;;10422747;28;20249;-77
2022/01/06 04:15:39;;;;;;;4.13;2.33;;;5.60;41.00;;;;;;10416467;28;20235;-77
2022/01/06 04:20:42;;;;;;;4.73;2.40;;;5.60;40.90;;;;;;10418935;28;20236;-77
2022/01/06 04:25:47;;;;;;;2.77;2.03;;;5.50;41.00;;;;;;10425000;28;20229;-76
2022/01/06 04:30:50;;;;;;;5.87;2.70;;;5.60;41.20;;;;;;10424347;28;20221;-76
2022/01/06 04:35:53;;;;;;;3.90;2.40;;;5.60;41.20;;;;;;10419752;28;20235;-77
2022/01/06 04:40:57;;;;;;;3.80;2.40;;;5.60;41.20;;;;;;10431419;28;20228;-76
2022/01/06 04:46:01;;;;;;;5.00;2.60;;;5.60;41.30;;;;;;10437100;28;20239;-76
2022/01/06 04:51:04;;;;;;;2.83;2.33;;;5.50;41.40;;;;;;10444144;28;20597;-74
2022/01/06 04:56:08;;;;;;;3.77;2.00;;;5.50;41.50;;;;;;10455245;28;20236;-73
2022/01/06 05:01:12;;;;;;;3.10;2.23;;;5.50;41.90;;;;;;10454892;28;20231;-74
2022/01/06 05:06:15;;;;;;;2.93;2.43;;;5.50;41.70;;;;;;10454612;28;20236;-74
2022/01/06 05:11:19;;;;;;;5.13;2.80;;;5.50;41.70;;;;;;10454643;28;20229;-74
2022/01/06 05:16:23;;;;;;;4.33;2.30;;;5.50;41.80;;;;;;10454088;28;20263;-74
2022/01/06 05:21:29;;;;;;;5.57;2.80;;;5.50;41.70;;;;;;10454198;28;20298;-74
2022/01/06 05:26:33;;;;;;;3.80;2.53;;;5.40;41.90;;;;;;10454294;28;20522;-74
2022/01/06 05:31:36;;;;;;;4.03;2.60;;;5.40;42.10;;;;;;10453595;28;20716;-74
2022/01/06 05:36:40;;;;;;;4.20;2.43;;;5.50;42.00;;;;;;10439585;28;21008;-77
2022/01/06 05:41:46;;;;;;;3.30;2.63;;;5.40;42.00;;;;;;10440955;28;20710;-76
2022/01/06 05:46:49;;;;;;;4.70;2.53;;;5.30;42.20;;;;;;10429090;28;20564;-77
2022/01/06 05:51:52;;;;;;;3.90;2.87;;;5.30;42.00;;;;;;10432930;28;20221;-76
2022/01/06 05:56:57;;;;;;;4.57;2.73;;;5.30;42.10;;;;;;10430795;28;20229;-76
2022/01/06 06:02:00;;;;;;;3.60;2.40;;;5.20;42.40;;;;;;10434764;28;20227;-77
2022/01/06 06:07:04;;;;;;;3.77;2.50;;;5.30;42.20;;;;;;10429745;28;20320;-76
2022/01/06 06:12:10;;;;;;;3.43;2.23;;;5.30;42.30;;;;;;10428442;28;20218;-76
2022/01/06 06:17:13;;;;;;;2.80;2.60;;;5.30;42.60;;;;;;10431840;28;20231;-77
2022/01/06 06:22:16;;;;;;;2.80;2.60;;;5.30;42.20;;;;;;10425849;28;20236;-77
2022/01/06 06:27:21;;;;;;;3.00;2.60;;;5.30;42.30;;;;;;10435385;28;20709;-77
2022/01/06 06:32:25;;;;;;;5.20;2.97;;;5.20;42.60;;;;;;10428690;28;20225;-76
2022/01/06 06:37:28;;;;;;;4.47;2.70;;;5.20;42.40;;;;;;10431196;28;20705;-77
2022/01/06 06:42:33;;;;;;;2.60;2.27;;;5.20;42.80;;;;;;10431456;28;20689;-77
2022/01/06 06:47:36;;;;;;;2.73;2.53;;;5.20;42.90;;;;;;10430029;28;20610;-76
2022/01/06 06:52:39;;;;;;;4.27;2.90;;;5.20;42.60;;;;;;10420169;28;20714;-77
2022/01/06 06:57:44;;;;;;;4.83;3.00;;;5.20;42.70;;;;;;10427236;28;20706;-76
2022/01/06 07:02:47;;;;;;;3.77;2.90;;;5.10;42.80;;;;;;10425789;28;20232;-77
2022/01/06 07:07:50;;;;;;;3.50;2.47;;;5.10;42.80;;;;;;10423862;28;20233;-76
2022/01/06 07:12:55;;;;;;;4.70;2.83;;;5.20;42.90;;;;;;10429910;28;20247;-76
2022/01/06 07:17:58;;;;;;;5.17;2.63;;;5.10;42.80;;;;;;10427779;28;20234;-76
2022/01/06 07:23:01;;;;;;;3.43;2.57;;;5.20;42.90;;;;;;10423978;28;20240;-76
2022/01/06 07:28:06;;;;;;;5.00;2.90;;;5.20;42.90;;;;;;10428533;28;20243;-76
2022/01/06 07:33:09;;;;;;;3.40;2.47;;;5.20;42.90;;;;;;10426727;28;20236;-76
2022/01/06 07:38:12;;;;;;;4.37;2.93;;;5.20;42.90;;;;;;10427624;28;20232;-76
2022/01/06 07:43:17;;;;;;;3.13;2.60;;;5.20;42.90;;;;;;10423462;28;20229;-76
2022/01/06 07:48:26;;;;;;;2.83;2.50;;;5.20;42.90;;;;;;10425929;28;20321;-76
2022/01/06 07:53:29;;;;;;;3.33;2.70;;;5.30;43.00;;;;;;10424101;28;20228;-76
2022/01/06 07:58:34;;;;;;;4.10;3.00;;;5.30;42.90;;;;;;10426138;28;20226;-76
2022/01/06 08:03:37;;;;;;;3.50;2.80;;;5.40;43.10;;;;;;10426184;28;20225;-75
2022/01/06 08:08:41;;;;;;;2.87;2.57;;;5.50;42.80;;;;;;10429000;28;20236;-76
2022/01/06 08:13:45;;;;;;;3.27;2.60;;;5.50;42.70;;;;;;10423143;28;20612;-76
2022/01/06 08:18:49;;;;;;;3.67;3.30;;;5.50;43.00;;;;;;10429163;28;20231;-76
2022/01/06 08:23:52;;;;;;;3.50;3.20;;;5.60;42.70;;;;;;10422194;28;20217;-76
2022/01/06 08:28:56;;;;;;;4.77;3.40;;;5.60;42.90;;;;;;10427767;28;20724;-75
2022/01/06 08:33:59;;;;;;;3.20;2.90;;;5.60;43.10;;;;;;10420835;28;20229;-76
2022/01/06 08:39:03;;;;;;;3.00;2.60;;;5.60;42.80;;;;;;10418442;28;20235;-76
2022/01/06 08:44:08;;;;;;;5.97;3.13;;;5.60;43.10;;;;;;10422742;28;20221;-74
2022/01/06 08:49:12;;;;;;;3.73;2.80;;;5.60;43.20;;;;;;10427022;28;20721;-74
2022/01/06 08:54:15;;;;;;;3.33;3.03;;;5.70;42.90;;;;;;10429817;28;20238;-74
2022/01/06 08:59:20;;;;;;;5.00;3.17;;;5.80;42.90;;;;;;10430931;28;20724;-74
2022/01/06 09:04:23;;;;;;;4.30;3.23;;;5.80;43.10;;;;;;10434287;28;20229;-74
2022/01/06 09:09:27;;;;;;;6.87;5.17;;;5.80;43.00;;;;;;10432016;28;20236;-75
2022/01/06 09:14:32;;;;;;;5.83;4.47;;;5.90;42.90;;;;;;10433081;28;20229;-75
2022/01/06 09:19:36;;;;;;;8.43;6.03;;;6.00;43.00;;;;;;10433773;28;20239;-75
2022/01/06 09:24:40;;;;;;;9.07;5.70;;;6.00;42.80;;;;;;10442454;28;20235;-75
2022/01/06 09:29:44;;;;;;;12.10;8.40;;;6.00;43.00;;;;;;10442471;28;20233;-75
2022/01/06 09:34:47;;;;;;;9.57;7.17;;;6.00;43.20;;;;;;10426625;28;20221;-75
2022/01/06 09:39:51;;;;;;;7.80;6.30;;;6.10;43.10;;;;;;10436367;28;20238;-75
2022/01/06 09:44:58;;;;;;;5.70;4.80;;;6.10;43.10;;;;;;10437642;28;20694;-76
2022/01/06 09:50:01;;;;;;;11.23;6.80;;;6.10;43.40;;;;;;10446471;28;20287;-75
2022/01/06 09:55:06;;;;;;;5.83;4.53;;;6.20;43.20;;;;;;10453514;28;20681;-75
2022/01/06 10:00:12;;;;;;;6.23;4.70;;;6.20;43.20;;;;;;10442312;28;20229;-76
2022/01/06 10:05:15;;;;;;;6.00;4.67;;;6.30;43.40;;;;;;10435556;28;20225;-77
2022/01/06 10:10:19;;;;;;;4.27;3.87;;;6.30;43.00;;;;;;10436181;28;20222;-76
2022/01/06 10:15:26;;;;;;;4.40;4.00;;;6.40;43.00;;;;;;10432536;28;20239;-76
2022/01/06 10:20:29;;;;;;;5.00;3.53;;;6.40;43.40;;;;;;10431350;28;20235;-76
2022/01/06 10:25:39;;;;;;;3.70;3.40;;;6.50;43.20;;;;;;10439525;28;20225;-75
2022/01/06 10:30:57;;;;;;;4.17;3.77;;;6.50;43.40;;;;;;10438052;28;20225;-76
2022/01/06 10:36:05;;;;;;;5.43;3.70;;;6.50;43.10;;;;;;10431535;28;20256;-76
2022/01/06 10:41:14;;;;;;;5.70;3.80;;;6.50;43.10;;;;;;10435740;28;20708;-75
2022/01/06 10:46:28;;;;;;;5.37;3.57;;;6.60;43.30;;;;;;10430324;28;20218;-76
2022/01/06 10:51:43;;;;;;;4.83;3.93;;;6.60;43.10;;;;;;10431348;28;20275;-76
2022/01/06 10:57:00;;;;;;;4.20;3.60;;;6.70;43.40;;;;;;10427606;28;20233;-76
2022/01/06 11:02:06;;;;;;;4.13;3.50;;;6.80;43.40;;;;;;10414934;28;20217;-74
2022/01/06 11:07:10;;;;;;;4.57;3.57;;;6.80;42.90;;;;;;10417001;28;20243;-75
2022/01/06 11:12:27;;;;;;;4.33;3.60;;;6.90;42.90;;;;;;10414859;28;20232;-75
2022/01/06 11:17:32;;;;;;;3.47;3.17;;;7.00;42.90;;;;;;10413855;28;20239;-75
2022/01/06 11:22:35;;;;;;;4.60;3.40;;;7.00;42.80;;;;;;10412965;28;20217;-75
2022/01/06 11:27:38;;;;;;;5.47;3.67;;;7.10;42.80;;;;;;10415633;28;20225;-75
2022/01/06 11:32:44;;;;;;;3.87;3.53;;;7.10;42.60;;;;;;10420396;28;20228;-75
2022/01/06 11:37:48;;;;;;;5.43;4.37;;;7.10;42.50;;;;;;10418670;28;20704;-75
2022/01/06 11:42:55;;;;;;;7.50;5.50;;;7.10;42.50;;;;;;10420197;28;20226;-75
2022/01/06 11:48:05;;;;;;;4.80;3.73;;;7.00;42.60;;;;;;10427783;28;20227;-74
2022/01/06 11:53:09;;;;;;;5.20;4.00;;;7.00;42.70;;;;;;10438433;28;20702;-75
2022/01/06 11:58:13;;;;;;;8.07;4.20;;;7.10;42.50;;;;;;10422429;28;20236;-76
2022/01/06 12:03:19;;;;;;;5.57;2.67;;;7.10;42.50;;;;;;10419542;28;20226;-75
2022/01/06 12:08:35;;;;;;;2.60;1.70;;;7.00;42.20;;;;;;10418263;28;20288;-75
2022/01/06 12:13:45;;;;;;;3.27;1.80;;;7.00;42.20;;;;;;10421335;28;20235;-75
2022/01/06 12:18:49;;;;;;;2.03;1.50;;;6.80;42.00;;;;;;10419927;28;20310;-75
2022/01/06 12:24:03;;;;;;;3.57;1.60;;;6.80;42.10;;;;;;10421408;28;20731;-75
2022/01/06 12:29:12;;;;;;;1.73;1.60;;;6.80;42.30;;;;;;10425423;28;20319;-76
2022/01/06 12:34:20;;;;;;;4.70;1.70;;;6.80;42.30;;;;;;10425360;28;20540;-78
2022/01/06 12:39:24;;;;;;;2.03;1.57;;;6.90;42.10;;;;;;10417855;28;20275;-75
2022/01/06 12:44:29;;;;;;;4.57;2.23;;;6.90;42.20;;;;;;10415752;28;20244;-75
2022/01/06 12:49:34;;;;;;;4.73;2.87;;;7.00;42.30;;;;;;10412998;28;20239;-75
2022/01/06 12:54:38;;;;;;;4.03;3.03;;;7.00;42.30;;;;;;10419110;28;20232;-75
2022/01/06 12:59:46;;;;;;;5.30;3.20;;;7.10;42.40;;;;;;10417631;28;20267;-75
2022/01/06 13:04:52;;;;;;;5.77;2.73;;;7.20;42.40;;;;;;10425454;28;20836;-75
2022/01/06 13:09:57;;;;;;;7.73;3.77;;;7.30;42.40;;;;;;10430690;28;20574;-75
2022/01/06 13:15:02;;;;;;;19.30;9.10;;;7.30;42.20;;;;;;10428084;28;20232;-75
2022/01/06 13:20:10;;;;;;;11.77;4.47;;;7.30;42.00;;;;;;10423297;28;20241;-75
2022/01/06 13:25:14;;;;;;;6.17;2.93;;;7.40;41.90;;;;;;10430112;28;20229;-74
2022/01/06 13:30:17;;;;;;;6.50;3.50;;;7.40;41.30;;;;;;10426113;28;20232;-75
2022/01/06 13:35:22;;;;;;;7.70;2.87;;;7.30;41.50;;;;;;10427776;28;20759;-74
2022/01/06 13:40:27;;;;;;;7.60;3.30;;;7.30;41.50;;;;;;10424295;28;20239;-75
2022/01/06 13:45:37;;;;;;;4.47;2.90;;;7.30;41.50;;;;;;10441060;28;20235;-73
2022/01/06 13:56:02;;;;;;;4.80;2.40;;;7.30;41.30;;;;;;10426849;28;20225;-75
2022/01/06 14:01:07;;;;;;;3.57;2.10;;;7.30;41.40;;;;;;10439848;28;20235;-74
2022/01/06 14:06:13;;;;;;;5.10;2.40;;;7.30;41.20;;;;;;10443580;28;20267;-74
2022/01/06 14:11:18;;;;;;;2.90;2.10;;;7.30;41.10;;;;;;10428139;28;20245;-74
2022/01/06 14:16:21;;;;;;;4.00;2.10;;;7.30;41.10;;;;;;10437694;28;20233;-75
2022/01/06 14:21:26;;;;;;;4.20;2.50;;;7.30;40.90;;;;;;10423248;28;20257;-75
2022/01/06 14:26:29;;;;;;;4.03;2.80;;;7.30;40.80;;;;;;10428316;28;20581;-75
2022/01/06 14:31:32;;;;;;;4.47;2.80;;;7.40;41.20;;;;;;10428799;28;20232;-77
2022/01/06 14:36:38;;;;;;;6.20;2.90;;;7.40;41.10;;;;;;10425741;28;20245;-76
2022/01/06 14:41:41;;;;;;;3.33;2.60;;;7.40;40.90;;;;;;10435974;28;20305;-76
2022/01/06 14:46:46;;;;;;;5.53;2.77;;;7.50;41.40;;;;;;10423775;28;20229;-75
2022/01/06 14:51:55;;;;;;;7.33;2.80;;;7.60;41.10;;;;;;10425787;28;20231;-74
2022/01/06 14:56:58;;;;;;;5.77;2.60;;;7.60;40.90;;;;;;10423644;28;20241;-75
2022/01/06 15:02:02;;;;;;;4.63;2.20;;;7.50;40.90;;;;;;10418829;28;20240;-75
2022/01/06 15:07:08;;;;;;;5.17;2.43;;;7.50;40.90;;;;;;10419795;28;20229;-75
2022/01/06 15:12:11;;;;;;;3.67;2.60;;;7.50;40.90;;;;;;10416440;28;20228;-76
2022/01/06 15:17:14;;;;;;;5.73;3.00;;;7.50;40.90;;;;;;10413753;28;20229;-75
2022/01/06 15:22:20;;;;;;;6.60;3.90;;;7.50;40.80;;;;;;10415881;28;20621;-75
2022/01/06 15:27:23;;;;;;;8.50;4.10;;;7.50;40.60;;;;;;10419725;28;20236;-75
2022/01/06 15:32:26;;;;;;;5.80;3.50;;;7.50;40.60;;;;;;10416800;28;20228;-75
2022/01/06 15:37:31;;;;;;;5.20;3.93;;;7.50;40.60;;;;;;10418472;28;20233;-75
2022/01/06 15:42:34;;;;;;;8.13;5.27;;;7.50;40.70;;;;;;10416318;28;20245;-75
2022/01/06 15:47:51;;;;;;;7.10;4.47;;;7.50;40.60;;;;;;10423185;28;20315;-75
2022/01/06 15:52:56;;;;;;;7.53;5.00;;;7.40;40.60;;;;;;10414248;28;20337;-75
2022/01/06 15:57:59;;;;;;;8.33;5.77;;;7.40;40.60;;;;;;10419062;28;20244;-75
2022/01/06 16:08:21;;;;;;;9.20;5.97;;;7.30;40.50;;;;;;10375995;28;20725;-75
2022/01/06 16:13:24;;;;;;;10.47;5.80;;;7.30;40.30;;;;;;10417676;28;20248;-74
2022/01/06 16:18:28;;;;;;;7.90;5.50;;;7.20;40.50;;;;;;10414995;28;20241;-74
2022/01/06 16:23:32;;;;;;;7.53;5.80;;;7.10;40.60;;;;;;10418259;28;20222;-74
2022/01/06 16:28:36;;;;;;;8.17;6.30;;;7.10;40.50;;;;;;10415490;28;20233;-73
2022/01/06 16:33:40;;;;;;;10.83;9.03;;;7.10;40.70;;;;;;10417804;28;20694;-75
2022/01/06 16:38:44;;;;;;;4.50;3.70;;;7.10;40.70;;;;;;10424679;28;20222;-75
2022/01/06 16:43:47;;;;;;;6.47;4.33;;;7.00;40.40;;;;;;10431721;28;20221;-74
2022/01/06 16:48:51;;;;;;;6.13;3.80;;;7.00;40.20;;;;;;10426820;28;20842;-74
2022/01/06 16:53:56;;;;;;;6.53;4.30;;;6.90;40.10;;;;;;10420893;28;20225;-74
2022/01/06 16:58:59;;;;;;;7.63;5.23;;;6.90;40.10;;;;;;10423554;28;20324;-74
2022/01/06 17:04:03;;;;;;;5.60;4.30;;;6.80;40.20;;;;;;10417950;28;20221;-74
2022/01/06 17:09:08;;;;;;;5.37;4.40;;;6.70;40.20;;;;;;10419451;28;20231;-74
2022/01/06 17:14:11;;;;;;;6.70;4.77;;;6.70;40.20;;;;;;10417463;28;20233;-74
2022/01/06 17:19:14;;;;;;;6.40;5.80;;;6.70;40.10;;;;;;10417699;28;20243;-74
2022/01/06 17:24:21;;;;;;;10.53;7.70;;;6.60;40.00;;;;;;10419645;28;20229;-74
2022/01/06 17:29:24;;;;;;;10.03;6.30;;;6.60;40.00;;;;;;10426083;28;20232;-74
2022/01/06 17:34:47;;;;;;;9.07;7.07;;;6.50;40.10;;;;;;10421179;28;20581;-74
2022/01/06 17:39:52;;;;;;;8.90;6.90;;;6.40;40.10;;;;;;10419665;28;20221;-74
2022/01/06 17:44:55;;;;;;;10.60;7.70;;;6.30;40.00;;;;;;10421612;28;20222;-74
2022/01/06 17:49:58;;;;;;;7.47;6.67;;;6.30;40.00;;;;;;10418213;28;20590;-74
2022/01/06 17:55:04;;;;;;;8.67;6.70;;;6.20;40.00;;;;;;10424726;28;20229;-74
2022/01/06 18:00:09;;;;;;;9.33;6.77;;;6.20;40.10;;;;;;10423233;28;20810;-74
2022/01/06 18:05:15;;;;;;;8.33;6.97;;;6.10;40.10;;;;;;10419087;28;20229;-74
2022/01/06 18:15:41;;;;;;;10.30;7.70;;;6.00;40.00;;;;;;10422768;28;20224;-74
2022/01/06 18:20:44;;;;;;;9.53;7.47;;;5.90;40.00;;;;;;10420038;28;20229;-73
2022/01/06 18:25:49;;;;;;;13.27;9.57;;;5.90;40.10;;;;;;10419832;28;20792;-73
2022/01/06 18:30:54;;;;;;;10.87;9.37;;;5.80;40.20;;;;;;10419899;28;20226;-73
2022/01/06 18:35:58;;;;;;;9.47;7.80;;;5.80;40.10;;;;;;10423670;28;20224;-74
2022/01/06 18:41:03;;;;;;;10.27;7.80;;;5.70;40.20;;;;;;10420664;28;20748;-74
2022/01/06 18:46:09;;;;;;;8.80;7.20;;;5.60;40.30;;;;;;10423878;28;20863;-74
2022/01/06 18:51:13;;;;;;;8.97;7.83;;;5.60;40.30;;;;;;10423994;28;20221;-74
2022/01/06 18:56:17;;;;;;;20.67;15.63;;;5.50;40.30;;;;;;10420956;28;20248;-74
2022/01/06 19:01:21;;;;;;;48.83;31.13;;;5.50;40.40;;;;;;10421492;28;20229;-74
2022/01/06 19:06:24;;;;;;;18.17;12.63;;;5.40;40.40;;;;;;10426161;28;20248;-74
2022/01/06 19:11:29;;;;;;;137.47;75.60;;;5.30;40.30;;;;;;10418859;28;20236;-74
2022/01/06 19:16:32;;;;;;;38.77;24.60;;;5.30;40.30;;;;;;10419122;28;20221;-74
2022/01/06 19:21:35;;;;;;;17.30;12.33;;;5.20;40.30;;;;;;10422327;28;20579;-74
2022/01/06 19:26:40;;;;;;;15.57;10.20;;;5.10;40.20;;;;;;10426728;28;20236;-74
2022/01/06 19:31:43;;;;;;;11.57;9.13;;;5.00;40.30;;;;;;10426298;28;20609;-74
2022/01/06 19:36:46;;;;;;;11.77;10.17;;;4.80;40.20;;;;;;10428481;28;20280;-74
2022/01/06 19:41:51;;;;;;;15.70;11.17;;;4.70;40.40;;;;;;10420662;28;20225;-74
2022/01/06 19:46:54;;;;;;;14.03;11.07;;;4.70;40.80;;;;;;10425137;28;20612;-74
2022/01/06 19:51:57;;;;;;;14.23;10.80;;;4.60;40.80;;;;;;10421586;28;20228;-75
2022/01/06 19:57:22;;;;;;;25.07;22.53;;;4.60;41.00;;;;;;10422930;28;20232;-75
2022/01/06 20:02:28;;;;;;;28.83;19.83;;;4.60;41.00;;;;;;10421745;28;20313;-75
2022/01/06 20:07:31;;;;;;;40.07;25.40;;;4.70;41.20;;;;;;10420338;28;20235;-75
2022/01/06 20:12:36;;;;;;;24.87;16.43;;;4.60;41.00;;;;;;10420755;28;20225;-75
2022/01/06 20:17:40;;;;;;;23.33;15.07;;;4.60;41.10;;;;;;10420361;28;20241;-75
2022/01/06 20:22:46;;;;;;;15.87;11.90;;;4.60;41.00;;;;;;10420682;28;20240;-74
2022/01/06 20:27:51;;;;;;;13.83;11.07;;;4.60;41.00;;;;;;10413628;28;20324;-75
2022/01/06 20:32:54;;;;;;;14.37;12.47;;;4.60;41.00;;;;;;10411275;28;20332;-75
2022/01/06 20:37:59;;;;;;;10.80;9.37;;;4.70;41.00;;;;;;10407604;28;20324;-74
2022/01/06 20:43:03;;;;;;;11.97;9.77;;;4.70;40.80;;;;;;10409311;28;20230;-74
2022/01/06 20:53:25;;;;;;;11.47;8.47;;;4.70;40.70;;;;;;10405837;28;20709;-74
2022/01/06 20:58:30;;;;;;;11.43;8.57;;;4.70;40.70;;;;;;10406472;28;20713;-74
2022/01/06 21:03:33;;;;;;;10.33;8.17;;;4.70;41.30;;;;;;10401554;28;20990;-74
2022/01/06 21:08:36;;;;;;;11.07;7.90;;;4.70;40.40;;;;;;10406299;28;20231;-74
2022/01/06 21:13:41;;;;;;;9.17;8.10;;;4.60;40.10;;;;;;10412043;28;20260;-74
2022/01/06 21:18:45;;;;;;;8.10;6.53;;;4.50;40.40;;;;;;10418581;28;20235;-74
2022/01/06 21:23:48;;;;;;;9.80;7.87;;;4.40;40.40;;;;;;10418186;28;20229;-74
2022/01/06 21:28:53;;;;;;;6.47;5.80;;;4.40;41.30;;;;;;10419087;28;20596;-74
2022/01/06 21:33:56;;;;;;;8.83;7.03;;;4.40;40.50;;;;;;10424858;28;20229;-73
2022/01/06 21:38:59;;;;;;;10.03;7.73;;;4.40;40.60;;;;;;10421314;28;20239;-74
2022/01/06 21:44:04;;;;;;;12.37;7.70;;;4.50;40.60;;;;;;10422124;28;20254;-73
2022/01/06 21:49:08;;;;;;;9.03;7.13;;;4.30;40.40;;;;;;10421884;28;20229;-73
2022/01/06 21:54:11;;;;;;;15.93;10.83;;;4.30;40.30;;;;;;10423537;28;20244;-74
2022/01/06 21:59:16;;;;;;;15.53;9.53;;;4.40;40.40;;;;;;10422800;28;20580;-73
2022/01/06 22:04:19;;;;;;;15.90;10.77;;;4.20;40.30;;;;;;10423796;28;20225;-74
2022/01/06 22:09:23;;;;;;;11.53;8.97;;;4.20;40.30;;;;;;10419045;28;20233;-73
2022/01/06 22:14:27;;;;;;;12.47;8.73;;;4.20;40.50;;;;;;10421819;28;20245;-74
2022/01/06 22:19:31;;;;;;;8.60;7.67;;;4.10;40.40;;;;;;10423020;28;20234;-74
2022/01/06 22:24:34;;;;;;;11.33;8.10;;;4.10;40.30;;;;;;10419995;28;20225;-73
2022/01/06 22:29:39;;;;;;;8.23;6.80;;;4.00;40.40;;;;;;10412788;28;20744;-73
2022/01/06 22:34:43;;;;;;;8.50;7.63;;;3.90;40.40;;;;;;10411999;28;20237;-73
2022/01/06 22:39:47;;;;;;;9.13;6.83;;;3.90;40.40;;;;;;10419382;28;20225;-74
2022/01/06 22:44:52;;;;;;;9.17;7.40;;;3.90;40.30;;;;;;10418726;28;20239;-74
2022/01/06 22:49:57;;;;;;;8.13;7.33;;;3.90;40.20;;;;;;10415847;28;20240;-73
2022/01/06 22:55:00;;;;;;;7.07;6.33;;;3.80;40.30;;;;;;10416318;28;20225;-73
2022/01/06 23:00:06;;;;;;;8.40;7.33;;;3.80;40.20;;;;;;10414974;28;20588;-74
2022/01/06 23:05:10;;;;;;;7.93;7.17;;;3.80;40.20;;;;;;10413780;28;20225;-73
2022/01/06 23:10:13;;;;;;;8.33;7.40;;;3.70;39.90;;;;;;10418993;28;20244;-74
2022/01/06 23:15:18;;;;;;;8.47;7.30;;;3.60;40.10;;;;;;10422912;28;20235;-73
2022/01/06 23:20:23;;;;;;;7.63;6.83;;;3.60;40.40;;;;;;10422747;28;20740;-74
2022/01/06 23:25:26;;;;;;;7.47;6.23;;;3.60;41.20;;;;;;10421585;28;20971;-73
2022/01/06 23:30:30;;;;;;;8.03;6.53;;;3.60;40.50;;;;;;10415336;28;20233;-73
2022/01/06 23:35:34;;;;;;;8.20;6.30;;;3.60;40.40;;;;;;10418660;28;20232;-73
2022/01/06 23:40:37;;;;;;;7.30;6.60;;;3.50;40.30;;;;;;10417659;28;21113;-73
2022/01/06 23:45:42;;;;;;;7.13;5.90;;;3.60;40.20;;;;;;10418595;28;20981;-73
2022/01/06 23:50:45;;;;;;;8.73;6.83;;;3.50;40.10;;;;;;10422751;28;20287;-73
2022/01/06 23:55:49;;;;;;;8.17;6.20;;;3.50;40.20;;;;;;10417606;28;20232;-73
